Time;durP1;ratioP1;P1;durP2;ratioP2;P2;SDS_P1;SDS_P2;PMS_P1;PMS_P2;Temp;Humidity;BMP_temperature;BMP_pressure;BME280_temperature;BME280_humidity;BME280_pressure;Samples;Min_cycle;Max_cycle;Signal;HPM_P1;HPM_P2
2022/03/29 00:00:16;;;;;;;41.50;22.30;;;;;;;;;;4957970;28;20520;-73
2022/03/29 00:02:43;;;;;;;33.75;20.17;;;;;;;;;;4958255;28;20054;-73
2022/03/29 00:05:09;;;;;;;38.05;21.05;;;;;;;;;;4975581;28;20061;-73
2022/03/29 00:07:35;;;;;;;38.45;20.88;;;;;;;;;;4978966;28;20281;-73
2022/03/29 00:10:04;;;;;;;42.88;22.52;;;;;;;;;;4958017;28;20042;-73
2022/03/29 00:12:31;;;;;;;43.88;23.35;;;;;;;;;;4958243;28;20054;-73
2022/03/29 00:14:57;;;;;;;47.85;26.58;;;;;;;;;;4957839;28;20043;-70
2022/03/29 00:17:23;;;;;;;46.45;25.38;;;;;;;;;;4974449;28;20106;-73
2022/03/29 00:19:49;;;;;;;51.50;26.70;;;;;;;;;;4957703;28;20509;-72
2022/03/29 00:22:15;;;;;;;52.80;28.85;;;;;;;;;;4957877;28;20089;-71
2022/03/29 00:24:41;;;;;;;54.63;28.70;;;;;;;;;;4974927;28;20043;-72
2022/03/29 00:27:07;;;;;;;52.70;28.38;;;;;;;;;;4974689;28;20042;-72
2022/03/29 00:29:33;;;;;;;58.50;30.35;;;;;;;;;;4958260;28;20039;-72
2022/03/29 00:31:59;;;;;;;54.65;28.92;;;;;;;;;;4957803;28;20138;-72
2022/03/29 00:34:25;;;;;;;57.15;30.10;;;;;;;;;;4957669;28;20066;-71
2022/03/29 00:36:51;;;;;;;60.92;31.17;;;;;;;;;;4974857;28;20038;-71
2022/03/29 00:39:17;;;;;;;64.28;33.60;;;;;;;;;;4974667;28;20051;-71
2022/03/29 00:41:43;;;;;;;67.35;33.72;;;;;;;;;;4973290;28;20047;-71
2022/03/29 00:44:09;;;;;;;66.20;32.00;;;;;;;;;;4974632;28;20054;-71
2022/03/29 00:46:35;;;;;;;61.92;32.38;;;;;;;;;;4957030;28;20058;-71
2022/03/29 00:49:01;;;;;;;62.20;31.33;;;;;;;;;;4974742;28;20062;-71
2022/03/29 00:51:27;;;;;;;56.97;30.52;;;;;;;;;;4974601;28;20126;-71
2022/03/29 00:53:54;;;;;;;57.35;30.38;;;;;;;;;;4957129;28;20121;-73
2022/03/29 00:56:20;;;;;;;59.35;31.08;;;;;;;;;;4974310;28;20039;-71
2022/03/29 00:58:47;;;;;;;53.55;29.77;;;;;;;;;;4974799;28;20046;-72
2022/03/29 01:01:14;;;;;;;58.67;29.83;;;;;;;;;;4973461;28;20047;-71
2022/03/29 01:03:43;;;;;;;52.80;29.50;;;;;;;;;;4974651;28;20046;-72
2022/03/29 01:06:09;;;;;;;58.00;30.25;;;;;;;;;;4974792;28;20073;-73
2022/03/29 01:08:35;;;;;;;59.13;30.55;;;;;;;;;;4956992;28;20074;-73
2022/03/29 01:11:02;;;;;;;58.55;31.02;;;;;;;;;;4956907;28;20078;-72
2022/03/29 01:13:29;;;;;;;56.08;29.15;;;;;;;;;;4974497;28;20065;-72
2022/03/29 01:15:55;;;;;;;59.78;30.67;;;;;;;;;;4974677;28;20059;-73
2022/03/29 01:18:26;;;;;;;57.88;29.38;;;;;;;;;;4974264;28;20054;-73
2022/03/29 01:20:55;;;;;;;58.03;30.48;;;;;;;;;;4957096;28;20494;-72
2022/03/29 01:23:21;;;;;;;60.40;31.45;;;;;;;;;;4974134;28;20106;-73
2022/03/29 01:25:50;;;;;;;69.82;33.47;;;;;;;;;;4974488;28;20058;-72
2022/03/29 01:28:16;;;;;;;65.10;32.30;;;;;;;;;;4974314;28;20043;-72
2022/03/29 01:30:43;;;;;;;61.22;31.15;;;;;;;;;;4978116;28;20050;-72
2022/03/29 01:33:09;;;;;;;66.63;32.13;;;;;;;;;;4978894;28;20042;-72
2022/03/29 01:35:36;;;;;;;64.00;31.00;;;;;;;;;;4980159;28;20417;-72
2022/03/29 01:38:02;;;;;;;59.75;30.77;;;;;;;;;;4976871;28;20404;-72
2022/03/29 01:40:28;;;;;;;59.65;29.23;;;;;;;;;;4960786;28;20050;-72
2022/03/29 01:42:59;;;;;;;59.78;30.48;;;;;;;;;;4978044;28;20049;-72
2022/03/29 01:45:26;;;;;;;57.33;29.23;;;;;;;;;;4960595;28;20051;-72
2022/03/29 01:47:52;;;;;;;60.00;28.95;;;;;;;;;;4957190;29;20121;-72
2022/03/29 01:50:19;;;;;;;55.85;27.45;;;;;;;;;;4958275;28;20047;-73
2022/03/29 01:52:45;;;;;;;54.72;26.25;;;;;;;;;;4957328;28;20051;-72
2022/03/29 01:55:12;;;;;;;50.38;25.60;;;;;;;;;;4958624;28;20039;-72
2022/03/29 01:57:39;;;;;;;49.03;25.27;;;;;;;;;;4941039;29;20054;-72
2022/03/29 02:02:50;;;;;;;43.65;22.67;;;;;;;;;;4958406;28;20047;-71
2022/03/29 02:05:17;;;;;;;47.97;23.55;;;;;;;;;;4958403;28;20083;-71
2022/03/29 02:07:44;;;;;;;50.35;25.23;;;;;;;;;;4958696;28;20498;-72
2022/03/29 02:10:10;;;;;;;43.70;22.77;;;;;;;;;;4958091;28;20102;-71
2022/03/29 02:12:36;;;;;;;42.47;22.38;;;;;;;;;;4957962;28;20454;-71
2022/03/29 02:15:03;;;;;;;45.75;23.58;;;;;;;;;;4958006;28;20093;-72
2022/03/29 02:17:29;;;;;;;43.63;22.17;;;;;;;;;;4956752;29;20043;-72
2022/03/29 02:19:55;;;;;;;45.00;22.45;;;;;;;;;;4956879;29;20117;-71
2022/03/29 02:22:21;;;;;;;46.15;24.35;;;;;;;;;;4940990;29;20511;-72
2022/03/29 02:24:47;;;;;;;46.45;23.65;;;;;;;;;;4940696;29;20090;-71
2022/03/29 02:27:13;;;;;;;42.05;21.98;;;;;;;;;;4956755;29;20194;-72
2022/03/29 02:29:39;;;;;;;42.50;23.17;;;;;;;;;;4957660;28;20078;-72
2022/03/29 02:32:05;;;;;;;46.88;23.77;;;;;;;;;;4956494;29;20573;-72
2022/03/29 02:34:32;;;;;;;45.55;22.42;;;;;;;;;;4957697;28;20437;-72
2022/03/29 02:36:58;;;;;;;48.75;24.38;;;;;;;;;;4956372;29;20075;-71
2022/03/29 02:39:24;;;;;;;44.05;23.40;;;;;;;;;;4957712;28;20121;-71
2022/03/29 02:41:50;;;;;;;48.35;24.45;;;;;;;;;;4940143;29;20055;-72
2022/03/29 02:44:16;;;;;;;43.85;22.40;;;;;;;;;;4957489;28;20043;-72
2022/03/29 02:46:44;;;;;;;47.03;23.65;;;;;;;;;;4961122;28;20059;-72
2022/03/29 02:49:11;;;;;;;45.08;24.17;;;;;;;;;;4959517;28;20488;-72
2022/03/29 02:51:38;;;;;;;45.65;22.70;;;;;;;;;;4959303;28;20413;-72
2022/03/29 02:54:05;;;;;;;51.10;24.35;;;;;;;;;;4975611;28;20075;-72
2022/03/29 02:56:31;;;;;;;46.80;22.70;;;;;;;;;;4959136;28;20105;-72
2022/03/29 02:58:57;;;;;;;44.50;22.70;;;;;;;;;;4976939;28;20057;-72
2022/03/29 03:01:23;;;;;;;43.80;22.70;;;;;;;;;;4976370;28;20042;-72
2022/03/29 03:03:50;;;;;;;47.45;23.38;;;;;;;;;;4976633;28;20050;-72
2022/03/29 03:06:16;;;;;;;48.47;23.92;;;;;;;;;;4976595;28;20120;-72
2022/03/29 03:08:42;;;;;;;45.35;22.40;;;;;;;;;;4976513;28;20050;-72
2022/03/29 03:11:08;;;;;;;46.13;23.38;;;;;;;;;;4975209;28;20049;-73
2022/03/29 03:13:35;;;;;;;45.30;22.90;;;;;;;;;;4976136;28;20493;-73
2022/03/29 03:16:01;;;;;;;48.72;22.77;;;;;;;;;;4959146;28;20058;-72
2022/03/29 03:18:27;;;;;;;43.08;23.08;;;;;;;;;;4976100;28;20058;-73
2022/03/29 03:20:53;;;;;;;51.35;23.63;;;;;;;;;;4975114;28;20055;-72
2022/03/29 03:23:19;;;;;;;51.63;24.65;;;;;;;;;;4974912;28;20477;-72
2022/03/29 03:25:45;;;;;;;44.15;23.40;;;;;;;;;;4975994;28;20142;-73
2022/03/29 03:28:11;;;;;;;51.63;25.40;;;;;;;;;;4975828;28;20135;-73
2022/03/29 03:30:37;;;;;;;52.42;23.85;;;;;;;;;;4975862;28;20038;-72
2022/03/29 03:33:03;;;;;;;46.63;23.60;;;;;;;;;;4975798;28;20043;-72
2022/03/29 03:35:29;;;;;;;50.90;23.67;;;;;;;;;;4976050;28;20101;-72
2022/03/29 03:37:55;;;;;;;50.38;23.25;;;;;;;;;;4975772;28;20066;-72
2022/03/29 03:40:21;;;;;;;48.55;22.83;;;;;;;;;;4974721;28;20043;-72
2022/03/29 03:42:47;;;;;;;47.17;23.10;;;;;;;;;;4958360;28;20050;-73
2022/03/29 03:45:13;;;;;;;49.40;24.23;;;;;;;;;;4975868;28;20057;-72
2022/03/29 03:47:40;;;;;;;44.20;22.60;;;;;;;;;;4958187;28;20066;-72
2022/03/29 03:50:06;;;;;;;51.50;23.48;;;;;;;;;;4958373;28;20205;-72
2022/03/29 03:52:33;;;;;;;42.90;22.02;;;;;;;;;;4973267;28;20138;-72
2022/03/29 03:54:59;;;;;;;52.20;23.33;;;;;;;;;;4975399;28;20042;-72
2022/03/29 03:57:24;;;;;;;49.83;23.67;;;;;;;;;;4957929;28;20117;-73
2022/03/29 03:59:52;;;;;;;45.70;21.67;;;;;;;;;;4975731;28;20137;-72
2022/03/29 04:02:18;;;;;;;45.30;21.30;;;;;;;;;;4957976;28;20058;-72
2022/03/29 04:04:44;;;;;;;45.28;21.52;;;;;;;;;;4975419;28;20038;-72
2022/03/29 04:07:10;;;;;;;45.22;21.50;;;;;;;;;;4975397;28;20046;-72
2022/03/29 04:09:38;;;;;;;43.92;21.85;;;;;;;;;;4958127;28;20058;-72
2022/03/29 04:12:05;;;;;;;44.97;22.27;;;;;;;;;;4974044;28;20126;-72
2022/03/29 04:14:31;;;;;;;39.50;20.67;;;;;;;;;;4973952;28;20051;-72
2022/03/29 04:16:57;;;;;;;41.63;21.42;;;;;;;;;;4974981;28;20085;-72
2022/03/29 04:19:23;;;;;;;42.88;20.98;;;;;;;;;;4958096;28;20047;-72
2022/03/29 04:21:49;;;;;;;45.53;20.95;;;;;;;;;;4957552;28;20105;-73
2022/03/29 04:24:15;;;;;;;43.55;20.33;;;;;;;;;;4957650;28;20174;-72
2022/03/29 04:26:41;;;;;;;41.63;19.90;;;;;;;;;;4974842;28;20043;-73
2022/03/29 04:29:07;;;;;;;44.33;20.50;;;;;;;;;;4975014;28;20482;-72
2022/03/29 04:31:33;;;;;;;37.42;19.45;;;;;;;;;;4973817;28;20043;-72
2022/03/29 04:34:00;;;;;;;42.20;20.92;;;;;;;;;;4957571;28;20186;-72
2022/03/29 04:36:27;;;;;;;44.72;20.65;;;;;;;;;;4974774;28;20109;-71
2022/03/29 04:38:53;;;;;;;42.38;21.25;;;;;;;;;;4957682;28;20180;-71
2022/03/29 04:41:19;;;;;;;41.10;20.38;;;;;;;;;;4957458;28;20485;-72
2022/03/29 04:43:45;;;;;;;45.15;21.02;;;;;;;;;;4973472;28;20095;-72
2022/03/29 04:46:11;;;;;;;41.97;20.90;;;;;;;;;;4957782;28;20478;-72
2022/03/29 04:48:37;;;;;;;46.60;22.02;;;;;;;;;;4977065;28;20101;-72
2022/03/29 04:51:03;;;;;;;43.63;20.80;;;;;;;;;;4977334;28;20047;-72
2022/03/29 04:53:29;;;;;;;63.15;25.20;;;;;;;;;;4974626;28;20038;-72
2022/03/29 04:55:56;;;;;;;45.15;20.48;;;;;;;;;;4974440;28;20120;-72
2022/03/29 04:58:22;;;;;;;39.33;19.85;;;;;;;;;;4973362;28;20047;-72
2022/03/29 05:00:48;;;;;;;45.95;21.08;;;;;;;;;;4973298;28;20417;-73
2022/03/29 05:03:15;;;;;;;42.85;20.45;;;;;;;;;;4957080;28;20477;-73
2022/03/29 05:05:41;;;;;;;38.58;19.77;;;;;;;;;;4957176;28;20047;-72
2022/03/29 05:08:07;;;;;;;42.67;19.95;;;;;;;;;;4974461;28;20129;-72
2022/03/29 05:10:33;;;;;;;42.33;20.90;;;;;;;;;;4957283;28;20486;-72
2022/03/29 05:12:59;;;;;;;56.00;21.88;;;;;;;;;;4957044;28;20046;-72
2022/03/29 05:15:25;;;;;;;36.15;18.95;;;;;;;;;;4974425;28;20050;-73
2022/03/29 05:17:51;;;;;;;37.88;20.48;;;;;;;;;;4974484;28;20078;-72
2022/03/29 05:20:18;;;;;;;39.13;20.42;;;;;;;;;;4974263;28;20047;-73
2022/03/29 05:22:51;;;;;;;41.47;19.42;;;;;;;;;;4974337;28;20042;-72
2022/03/29 05:25:18;;;;;;;43.00;20.10;;;;;;;;;;4957002;28;20039;-72
2022/03/29 05:27:45;;;;;;;48.83;21.60;;;;;;;;;;4974412;28;20094;-72
2022/03/29 05:30:11;;;;;;;43.28;20.25;;;;;;;;;;4974065;28;20045;-73
2022/03/29 05:32:38;;;;;;;44.05;20.05;;;;;;;;;;4974450;28;20097;-72
2022/03/29 05:35:05;;;;;;;53.42;23.08;;;;;;;;;;4974772;28;20054;-72
2022/03/29 05:37:31;;;;;;;63.25;23.88;;;;;;;;;;4972982;28;20379;-72
2022/03/29 05:39:57;;;;;;;45.88;23.98;;;;;;;;;;4956887;28;20109;-72
2022/03/29 05:42:23;;;;;;;54.45;21.80;;;;;;;;;;4957048;28;20397;-72
2022/03/29 05:44:50;;;;;;;51.33;21.27;;;;;;;;;;4974371;28;20054;-72
2022/03/29 05:50:00;;;;;;;45.42;21.23;;;;;;;;;;4956768;28;20051;-73
2022/03/29 05:52:26;;;;;;;41.83;19.95;;;;;;;;;;4956689;28;20051;-72
2022/03/29 05:54:52;;;;;;;46.67;21.05;;;;;;;;;;4956785;28;20179;-72
2022/03/29 05:57:19;;;;;;;41.83;20.67;;;;;;;;;;4972824;28;20081;-72
2022/03/29 05:59:45;;;;;;;44.47;21.27;;;;;;;;;;4973854;28;20050;-72
2022/03/29 06:02:11;;;;;;;42.53;21.27;;;;;;;;;;4974393;28;20043;-73
2022/03/29 06:04:38;;;;;;;46.75;21.70;;;;;;;;;;4973864;28;20039;-73
2022/03/29 06:07:05;;;;;;;40.00;19.08;;;;;;;;;;4973794;28;20521;-72
2022/03/29 06:09:31;;;;;;;37.65;20.23;;;;;;;;;;4956710;28;20057;-72
2022/03/29 06:11:57;;;;;;;45.03;20.88;;;;;;;;;;4973985;28;20057;-73
2022/03/29 06:14:23;;;;;;;46.55;20.27;;;;;;;;;;4956421;28;20047;-72
2022/03/29 06:16:49;;;;;;;42.70;20.83;;;;;;;;;;4958477;28;20244;-72
2022/03/29 06:19:15;;;;;;;41.63;20.30;;;;;;;;;;4977142;28;20179;-73
2022/03/29 06:21:42;;;;;;;42.00;20.70;;;;;;;;;;4960140;28;20061;-72
2022/03/29 06:24:09;;;;;;;38.58;19.88;;;;;;;;;;4959980;28;20129;-73
2022/03/29 06:26:39;;;;;;;44.47;21.80;;;;;;;;;;4977320;28;20498;-72
2022/03/29 06:29:08;;;;;;;39.35;21.00;;;;;;;;;;4977051;28;20061;-72
2022/03/29 06:31:34;;;;;;;49.55;21.33;;;;;;;;;;4976742;28;20074;-72
2022/03/29 06:34:01;;;;;;;51.65;22.83;;;;;;;;;;4977241;28;20051;-72
2022/03/29 06:36:27;;;;;;;56.88;24.73;;;;;;;;;;4977113;28;20074;-71
2022/03/29 06:38:53;;;;;;;43.60;21.75;;;;;;;;;;4976998;28;20038;-73
2022/03/29 06:41:20;;;;;;;50.25;22.67;;;;;;;;;;4959411;28;20050;-72
2022/03/29 06:43:47;;;;;;;49.30;21.63;;;;;;;;;;4976665;28;20412;-72
2022/03/29 06:46:13;;;;;;;45.30;21.65;;;;;;;;;;4976867;28;20043;-73
2022/03/29 06:48:41;;;;;;;53.15;22.77;;;;;;;;;;4976505;28;20105;-73
2022/03/29 06:51:09;;;;;;;48.38;21.73;;;;;;;;;;4959121;28;20477;-73
2022/03/29 06:53:35;;;;;;;47.83;22.05;;;;;;;;;;4976752;28;20046;-73
2022/03/29 06:56:01;;;;;;;48.75;22.90;;;;;;;;;;4976532;28;20119;-73
2022/03/29 06:58:28;;;;;;;54.35;24.88;;;;;;;;;;4959046;28;20098;-72
2022/03/29 07:00:56;;;;;;;64.05;25.88;;;;;;;;;;4976316;28;20050;-73
2022/03/29 07:03:22;;;;;;;120.38;36.97;;;;;;;;;;4958832;28;20042;-73
2022/03/29 07:05:48;;;;;;;69.75;26.83;;;;;;;;;;4960771;28;20057;-73
2022/03/29 07:08:16;;;;;;;70.88;27.95;;;;;;;;;;4987672;28;20054;-74
2022/03/29 07:13:28;;;;;;;56.13;26.73;;;;;;;;;;4984241;28;20051;-74
2022/03/29 07:15:54;;;;;;;51.45;25.83;;;;;;;;;;4974859;28;20073;-73
2022/03/29 07:18:20;;;;;;;56.50;27.35;;;;;;;;;;4976732;28;20046;-73
2022/03/29 07:20:46;;;;;;;49.45;25.83;;;;;;;;;;4956516;28;20058;-73
2022/03/29 07:23:12;;;;;;;51.50;27.48;;;;;;;;;;4983973;28;20054;-74
2022/03/29 07:25:38;;;;;;;47.67;24.73;;;;;;;;;;4958863;28;20404;-73
2022/03/29 07:28:11;;;;;;;55.17;26.00;;;;;;;;;;4990825;28;20042;-73
2022/03/29 07:30:40;;;;;;;60.83;27.65;;;;;;;;;;4972284;28;20042;-74
2022/03/29 07:33:06;;;;;;;54.38;25.65;;;;;;;;;;4988786;28;20046;-74
2022/03/29 07:35:33;;;;;;;51.83;26.25;;;;;;;;;;4977984;28;20047;-73
2022/03/29 07:38:00;;;;;;;59.40;26.02;;;;;;;;;;4993787;28;20117;-74
2022/03/29 07:40:27;;;;;;;62.90;28.42;;;;;;;;;;4988272;28;20050;-73
2022/03/29 07:42:54;;;;;;;54.42;28.05;;;;;;;;;;4992687;28;20078;-72
2022/03/29 07:45:20;;;;;;;63.35;28.17;;;;;;;;;;4980515;28;20069;-73
2022/03/29 07:47:48;;;;;;;65.43;27.30;;;;;;;;;;4982027;28;20505;-72
2022/03/29 07:50:14;;;;;;;52.00;26.08;;;;;;;;;;4966530;28;20412;-72
2022/03/29 07:52:42;;;;;;;51.83;26.05;;;;;;;;;;4982491;28;20038;-72
2022/03/29 07:55:10;;;;;;;54.92;27.58;;;;;;;;;;4966142;28;20091;-73
2022/03/29 07:57:36;;;;;;;54.17;26.97;;;;;;;;;;4967971;28;20050;-71
2022/03/29 08:00:31;;;;;;;58.63;28.95;;;;;;;;;;4968631;28;20489;-72
2022/03/29 08:02:49;;;;;;;56.90;26.60;;;;;;;;;;4985370;28;20509;-73
2022/03/29 08:05:15;;;;;;;55.85;27.40;;;;;;;;;;4966583;28;20096;-73
2022/03/29 08:07:41;;;;;;;56.55;26.95;;;;;;;;;;4984294;28;20042;-73
2022/03/29 08:10:07;;;;;;;54.88;25.27;;;;;;;;;;4977591;28;20074;-72
2022/03/29 08:12:34;;;;;;;52.75;25.95;;;;;;;;;;4979117;28;20060;-72
2022/03/29 08:15:00;;;;;;;57.05;26.35;;;;;;;;;;4963495;28;20130;-72
2022/03/29 08:17:26;;;;;;;57.72;26.73;;;;;;;;;;4969906;28;20465;-72
2022/03/29 08:19:52;;;;;;;52.33;26.35;;;;;;;;;;4957830;28;20441;-72
2022/03/29 08:22:18;;;;;;;53.83;25.52;;;;;;;;;;4986705;28;20489;-72
2022/03/29 08:24:44;;;;;;;47.95;24.85;;;;;;;;;;4976477;28;20046;-72
2022/03/29 08:27:10;;;;;;;47.80;24.55;;;;;;;;;;4992459;28;20082;-72
2022/03/29 08:29:37;;;;;;;53.05;25.30;;;;;;;;;;4973863;28;20110;-72
2022/03/29 08:32:04;;;;;;;46.92;25.10;;;;;;;;;;4943589;28;20047;-73
2022/03/29 08:34:31;;;;;;;52.47;24.58;;;;;;;;;;4971943;28;20043;-73
2022/03/29 08:36:57;;;;;;;54.97;25.90;;;;;;;;;;4989378;28;20042;-73
2022/03/29 08:39:23;;;;;;;45.00;24.70;;;;;;;;;;4981322;28;20070;-73
2022/03/29 08:41:59;;;;;;;57.08;26.48;;;;;;;;;;4983412;28;20050;-74
2022/03/29 08:44:26;;;;;;;44.20;21.77;;;;;;;;;;4964335;28;20472;-74
2022/03/29 08:46:52;;;;;;;47.22;22.65;;;;;;;;;;4984243;28;20051;-73
2022/03/29 08:49:20;;;;;;;45.25;22.63;;;;;;;;;;4982898;28;20055;-73
2022/03/29 08:51:46;;;;;;;53.45;24.65;;;;;;;;;;4981946;28;20104;-74
2022/03/29 08:54:12;;;;;;;48.95;23.33;;;;;;;;;;4975836;28;20481;-73
2022/03/29 08:56:40;;;;;;;53.75;24.45;;;;;;;;;;4972312;28;20041;-74
2022/03/29 08:59:06;;;;;;;52.90;24.27;;;;;;;;;;4976618;28;20053;-73
2022/03/29 09:01:32;;;;;;;60.80;25.67;;;;;;;;;;4973031;28;20050;-73
2022/03/29 09:04:04;;;;;;;51.70;24.38;;;;;;;;;;4973189;28;20397;-73
2022/03/29 09:06:31;;;;;;;49.70;25.23;;;;;;;;;;4945525;28;20437;-73
2022/03/29 09:08:57;;;;;;;51.72;25.17;;;;;;;;;;4962737;28;20485;-73
2022/03/29 09:11:23;;;;;;;51.55;24.02;;;;;;;;;;4956723;28;20039;-72
2022/03/29 09:14:03;;;;;;;44.88;23.50;;;;;;;;;;4978514;28;20047;-73
2022/03/29 09:16:30;;;;;;;46.33;24.23;;;;;;;;;;4975551;28;20046;-73
2022/03/29 09:18:57;;;;;;;45.47;22.80;;;;;;;;;;4975617;28;20531;-73
2022/03/29 09:21:24;;;;;;;53.63;25.08;;;;;;;;;;4975796;28;20096;-73
2022/03/29 09:24:11;;;;;;;57.17;25.85;;;;;;;;;;4971113;28;20057;-73
2022/03/29 09:26:38;;;;;;;51.28;25.20;;;;;;;;;;4973919;28;20121;-73
2022/03/29 09:29:11;;;;;;;50.75;25.13;;;;;;;;;;4986807;28;20070;-74
2022/03/29 09:31:38;;;;;;;59.60;25.80;;;;;;;;;;4974390;28;20043;-73
2022/03/29 09:34:10;;;;;;;47.90;23.70;;;;;;;;;;4973501;28;20047;-73
2022/03/29 09:36:40;;;;;;;46.40;24.30;;;;;;;;;;4979052;28;20503;-72
2022/03/29 09:39:06;;;;;;;47.47;24.65;;;;;;;;;;4966109;28;20089;-73
2022/03/29 09:41:33;;;;;;;55.90;27.08;;;;;;;;;;4987653;28;20046;-74
2022/03/29 09:44:06;;;;;;;48.20;23.83;;;;;;;;;;4988865;28;20103;-73
2022/03/29 09:46:52;;;;;;;49.88;25.15;;;;;;;;;;4992003;28;20062;-73
2022/03/29 09:49:19;;;;;;;46.88;24.38;;;;;;;;;;4957059;28;20477;-72
2022/03/29 09:51:45;;;;;;;44.22;25.00;;;;;;;;;;4984293;28;20494;-73
2022/03/29 09:54:12;;;;;;;49.90;25.15;;;;;;;;;;4994747;28;20058;-74
2022/03/29 09:56:38;;;;;;;43.15;23.95;;;;;;;;;;4977506;28;20039;-73
2022/03/29 09:59:09;;;;;;;43.88;22.88;;;;;;;;;;4987988;28;20049;-73
2022/03/29 10:01:53;;;;;;;46.22;24.45;;;;;;;;;;4988260;28;20073;-72
2022/03/29 10:04:20;;;;;;;43.58;22.35;;;;;;;;;;4963490;28;20039;-73
2022/03/29 10:06:47;;;;;;;113.03;32.88;;;;;;;;;;4992447;28;20140;-74
2022/03/29 10:09:29;;;;;;;44.55;23.15;;;;;;;;;;4979368;28;20038;-73
2022/03/29 10:11:57;;;;;;;51.08;24.33;;;;;;;;;;4960369;28;20050;-73
2022/03/29 10:14:27;;;;;;;41.00;22.20;;;;;;;;;;4974635;28;20051;-72
2022/03/29 10:16:53;;;;;;;52.03;24.08;;;;;;;;;;4976229;28;20058;-73
2022/03/29 10:19:20;;;;;;;39.35;22.83;;;;;;;;;;4959808;28;20089;-73
2022/03/29 10:21:46;;;;;;;44.58;24.27;;;;;;;;;;4963632;28;20046;-72
2022/03/29 10:24:16;;;;;;;39.28;22.23;;;;;;;;;;4979017;28;20042;-73
2022/03/29 10:26:43;;;;;;;43.60;24.00;;;;;;;;;;4962191;28;20137;-73
2022/03/29 10:29:09;;;;;;;47.80;24.15;;;;;;;;;;4974994;28;20101;-73
2022/03/29 10:31:41;;;;;;;42.72;23.00;;;;;;;;;;4959534;28;20050;-73
2022/03/29 10:34:16;;;;;;;47.03;22.92;;;;;;;;;;4990848;28;20050;-73
2022/03/29 10:37:00;;;;;;;39.25;19.85;;;;;;;;;;4984946;28;20105;-73
2022/03/29 10:39:41;;;;;;;34.90;19.63;;;;;;;;;;4975719;28;20047;-74
2022/03/29 10:42:26;;;;;;;41.28;20.75;;;;;;;;;;4993912;28;20054;-73
2022/03/29 10:45:11;;;;;;;35.97;20.23;;;;;;;;;;4993162;28;20141;-73
2022/03/29 10:47:38;;;;;;;33.00;20.27;;;;;;;;;;4978221;28;20516;-73
2022/03/29 10:50:05;;;;;;;36.80;19.10;;;;;;;;;;4968259;28;20047;-73
2022/03/29 10:52:42;;;;;;;41.53;20.08;;;;;;;;;;4976779;28;20050;-73
2022/03/29 10:55:34;;;;;;;32.38;18.45;;;;;;;;;;4966270;28;20090;-73
2022/03/29 10:58:07;;;;;;;34.40;19.08;;;;;;;;;;4968404;28;20138;-73
2022/03/29 11:00:34;;;;;;;38.50;18.83;;;;;;;;;;4974656;28;20122;-73
2022/03/29 11:03:20;;;;;;;33.85;19.42;;;;;;;;;;4968053;28;20067;-73
2022/03/29 11:06:08;;;;;;;38.88;19.40;;;;;;;;;;4963357;28;20058;-73
2022/03/29 11:08:38;;;;;;;33.70;19.13;;;;;;;;;;4960755;28;20051;-74
2022/03/29 11:11:05;;;;;;;37.63;20.30;;;;;;;;;;4974761;28;20042;-74
2022/03/29 11:13:32;;;;;;;54.25;22.10;;;;;;;;;;4975401;28;20051;-73
2022/03/29 11:16:02;;;;;;;41.15;20.77;;;;;;;;;;4975116;28;20138;-73
2022/03/29 11:18:31;;;;;;;35.25;19.42;;;;;;;;;;4964411;28;20106;-73
2022/03/29 11:21:02;;;;;;;35.58;19.95;;;;;;;;;;4970892;28;20043;-73
2022/03/29 11:23:39;;;;;;;32.42;18.73;;;;;;;;;;4972468;28;20122;-74
2022/03/29 11:26:08;;;;;;;35.97;19.20;;;;;;;;;;4957461;28;20043;-73
2022/03/29 11:28:35;;;;;;;33.53;19.10;;;;;;;;;;4974952;28;20406;-73
2022/03/29 11:31:01;;;;;;;29.75;18.70;;;;;;;;;;4973768;28;20046;-73
2022/03/29 11:33:34;;;;;;;35.10;18.80;;;;;;;;;;4958381;28;20043;-73
2022/03/29 11:36:01;;;;;;;33.40;19.08;;;;;;;;;;4971063;28;20055;-73
2022/03/29 11:38:31;;;;;;;30.17;18.58;;;;;;;;;;4966073;28;20372;-74
2022/03/29 11:40:57;;;;;;;39.78;19.65;;;;;;;;;;4967405;28;20055;-73
2022/03/29 11:43:23;;;;;;;29.50;18.00;;;;;;;;;;4964476;28;20061;-73
2022/03/29 11:45:51;;;;;;;33.47;18.73;;;;;;;;;;4957343;28;20089;-74
2022/03/29 11:48:18;;;;;;;39.33;19.38;;;;;;;;;;4979828;28;20047;-73
2022/03/29 11:50:51;;;;;;;32.17;18.30;;;;;;;;;;4966190;28;20131;-74
2022/03/29 11:53:30;;;;;;;37.35;19.15;;;;;;;;;;4988389;28;20042;-74
2022/03/29 11:56:08;;;;;;;37.28;18.63;;;;;;;;;;4952662;28;20484;-74
2022/03/29 11:58:35;;;;;;;34.88;17.65;;;;;;;;;;4988923;28;20441;-74
2022/03/29 12:01:03;;;;;;;29.58;18.13;;;;;;;;;;4967934;28;20069;-74
2022/03/29 12:03:31;;;;;;;30.60;18.63;;;;;;;;;;4994695;28;20050;-74
2022/03/29 12:06:07;;;;;;;30.27;18.02;;;;;;;;;;4990906;28;20046;-74
2022/03/29 12:08:47;;;;;;;26.27;16.55;;;;;;;;;;4978584;28;20034;-74
2022/03/29 12:11:15;;;;;;;32.13;16.48;;;;;;;;;;4978287;28;20047;-75
2022/03/29 12:13:41;;;;;;;25.23;16.63;;;;;;;;;;4991964;28;20076;-74
2022/03/29 12:16:16;;;;;;;29.33;17.08;;;;;;;;;;4983494;28;20046;-75
2022/03/29 12:18:42;;;;;;;28.58;17.55;;;;;;;;;;4976542;28;20049;-74
2022/03/29 12:21:13;;;;;;;26.88;16.58;;;;;;;;;;4990211;28;20039;-73
2022/03/29 12:23:39;;;;;;;27.67;15.65;;;;;;;;;;4988859;28;20096;-74
2022/03/29 12:26:06;;;;;;;29.00;14.77;;;;;;;;;;4977084;28;20064;-74
2022/03/29 12:28:32;;;;;;;30.52;14.60;;;;;;;;;;4990442;28;20473;-74
2022/03/29 12:30:58;;;;;;;27.75;15.32;;;;;;;;;;4956602;28;20174;-74
2022/03/29 12:33:25;;;;;;;26.35;15.07;;;;;;;;;;4966632;28;20441;-74
2022/03/29 12:36:04;;;;;;;27.15;15.45;;;;;;;;;;4967622;28;20544;-74
2022/03/29 12:38:39;;;;;;;29.23;16.83;;;;;;;;;;4961325;28;20046;-74
2022/03/29 12:41:05;;;;;;;27.92;15.35;;;;;;;;;;4987328;28;20042;-75
2022/03/29 12:43:34;;;;;;;24.70;14.38;;;;;;;;;;4988184;28;20042;-73
2022/03/29 12:46:00;;;;;;;20.80;13.82;;;;;;;;;;4970611;28;20048;-73
2022/03/29 12:48:28;;;;;;;31.23;14.85;;;;;;;;;;4965511;28;20054;-74
2022/03/29 12:50:54;;;;;;;36.08;15.85;;;;;;;;;;4981365;28;20085;-74
2022/03/29 12:53:20;;;;;;;27.25;14.63;;;;;;;;;;4987564;28;20038;-74
2022/03/29 12:55:56;;;;;;;27.77;15.02;;;;;;;;;;4985360;28;20050;-74
2022/03/29 12:58:33;;;;;;;24.40;14.27;;;;;;;;;;4967533;28;20125;-74
2022/03/29 13:01:01;;;;;;;24.95;14.27;;;;;;;;;;4986166;28;20134;-74
2022/03/29 13:03:27;;;;;;;23.90;14.00;;;;;;;;;;4989785;28;20073;-74
2022/03/29 13:05:53;;;;;;;28.35;14.48;;;;;;;;;;4968543;28;20046;-74
2022/03/29 13:08:23;;;;;;;26.58;14.63;;;;;;;;;;4981705;28;20046;-73
2022/03/29 13:10:50;;;;;;;30.05;14.38;;;;;;;;;;4966813;28;20129;-73
2022/03/29 13:13:28;;;;;;;29.15;13.75;;;;;;;;;;4984648;28;20051;-74
2022/03/29 13:15:57;;;;;;;44.25;15.40;;;;;;;;;;4980677;28;20082;-74
2022/03/29 13:18:30;;;;;;;28.27;12.75;;;;;;;;;;4969363;28;20043;-74
2022/03/29 13:21:08;;;;;;;26.65;13.43;;;;;;;;;;4982830;28;20124;-74
2022/03/29 13:23:39;;;;;;;24.40;12.52;;;;;;;;;;4992617;28;20090;-75
2022/03/29 13:26:06;;;;;;;27.50;14.45;;;;;;;;;;4991329;28;20046;-76
2022/03/29 13:28:32;;;;;;;23.75;13.27;;;;;;;;;;4979986;28;20121;-74
2022/03/29 13:30:58;;;;;;;23.10;13.68;;;;;;;;;;4996125;28;20439;-75
2022/03/29 13:33:24;;;;;;;28.02;14.00;;;;;;;;;;4997702;28;20068;-74
2022/03/29 13:35:51;;;;;;;26.63;13.40;;;;;;;;;;4976422;28;20047;-75
2022/03/29 13:38:20;;;;;;;23.98;12.10;;;;;;;;;;4963074;28;20239;-74
2022/03/29 13:40:47;;;;;;;22.80;12.40;;;;;;;;;;4995424;28;20496;-75
2022/03/29 13:43:14;;;;;;;22.73;11.98;;;;;;;;;;4996716;28;20054;-74
2022/03/29 13:45:40;;;;;;;20.45;11.68;;;;;;;;;;4974672;28;20046;-74
2022/03/29 13:48:07;;;;;;;27.15;13.05;;;;;;;;;;4975491;28;20073;-73
2022/03/29 13:50:34;;;;;;;23.13;12.30;;;;;;;;;;4993222;28;20506;-74
2022/03/29 13:53:00;;;;;;;24.25;11.65;;;;;;;;;;4968318;28;20055;-74
2022/03/29 13:55:26;;;;;;;24.45;12.32;;;;;;;;;;4976241;28;20054;-73
2022/03/29 13:57:52;;;;;;;25.15;12.40;;;;;;;;;;4974556;28;20054;-73
2022/03/29 14:00:19;;;;;;;29.45;11.93;;;;;;;;;;4989261;28;20050;-74
2022/03/29 14:02:45;;;;;;;24.52;11.45;;;;;;;;;;4978785;28;20547;-74
2022/03/29 14:05:12;;;;;;;24.20;11.02;;;;;;;;;;4992511;28;20496;-74
2022/03/29 14:07:38;;;;;;;24.35;11.70;;;;;;;;;;4996067;28;20092;-73
2022/03/29 14:10:04;;;;;;;23.73;11.85;;;;;;;;;;4987769;28;20053;-74
2022/03/29 14:12:30;;;;;;;32.75;14.00;;;;;;;;;;4963220;28;20049;-74
2022/03/29 14:14:56;;;;;;;25.88;12.32;;;;;;;;;;4991849;28;20047;-73
2022/03/29 14:17:22;;;;;;;27.70;11.45;;;;;;;;;;4973906;28;20051;-73
2022/03/29 14:19:50;;;;;;;33.65;12.85;;;;;;;;;;4959570;28;20137;-74
2022/03/29 14:22:16;;;;;;;25.33;9.77;;;;;;;;;;4985522;28;20150;-74
2022/03/29 14:24:43;;;;;;;23.25;10.20;;;;;;;;;;4963351;28;20081;-74
2022/03/29 14:27:09;;;;;;;24.95;10.60;;;;;;;;;;4996753;28;20109;-73